Redwood City, CA (94065)

10:46 AM PDT on August 31, 2015 (GMT -0700)
Belmont - Island Park | | Change Station
CLOSE
Current Station
Personal Weather Station
Location: Belmont, CA
Elevation: 5 ft
Nearby Weather Stations

Elev 5 ft 37.53 °N, 122.27 °W | Updated 10 seconds ago

Clear
Clear
74.3 °F
Feels Like 77 °F
N
3.6
Wind Variable Wind from South
Gusts 6.3 mph

Today
High -- | Low -- °F
--% Chance of Precip.
Yesterday
High -- | Low -- °F
Precip. -- in
6:38 AM 7:39 PM
Waning Gibbous, 94% visible
Pressure 29.95 in
Visibility 20.0 miles
Clouds Clear
Heat Index 77 °F
Dew Point 59 °F
Humidity 59%
Rainfall 0.00 in
Snow Depth Not available.
UV 4 out of 12
Pollen 6.60 out of 12
Air Quality Not available.
Flu Activity Not available.
METAR KPAO 311647Z 06006KT 20SM SKC 21/15 A2995
Pressure 29.95 in
Visibility 20.0 miles
Clouds Clear
Heat Index 77 °F
Dew Point 59 °F
Humidity 59%
Rainfall 0.00 in
Snow Depth Not available.
UV 4 out of 12
Pollen 6.60 out of 12
Air Quality Not available.
Flu Activity Not available.
METAR KPAO 311647Z 06006KT 20SM SKC 21/15 A2995

10-Day Weather Forecast

×

Almanac

Astronomy

Aug. 31, 2015 Rise Set
Actual Time
Civil Twilight
Nautical Twilight
Astronomical Twilight
Moon
Length of Visible Light
Length of Day
Tomorrow will be .
, % of the Moon is Illuminated

Today's Extremes

State Highs State Lows

Community

WunderPhotos

Upload Photos

1,851,328 photos uploaded!

WunderBlogs® & News

Nearby

Air Quality

  Air Quality AQ Index Pollutant
Not available.

Snow Depth

Station Depth Elevation

Earthquake Activity

City Distance Mag. Time & Date
Minimum magnitude displayed is 2.5.

Coastal Water Temperatures

Place Temperature

Stations

Nearby Weather Stations

Station Location Temp. Windchill Dew Point Humidity Wind Precip. Elev Updated Type